sensor_id;sensor_type;location;lat;lon;timestamp;temperature;humidity
36002;DHT22;22070;50.922;5.430;2023-03-31T00:01:34;12.20;99.90
36002;DHT22;22070;50.922;5.430;2023-03-31T00:04:00;12.20;99.90
36002;DHT22;22070;50.922;5.430;2023-03-31T00:06:31;12.30;99.90
36002;DHT22;22070;50.922;5.430;2023-03-31T00:09:06;12.30;99.90
36002;DHT22;22070;50.922;5.430;2023-03-31T00:11:32;12.30;99.90
36002;DHT22;22070;50.922;5.430;2023-03-31T00:13:57;12.30;99.90
36002;DHT22;22070;50.922;5.430;2023-03-31T00:16:23;12.30;99.90
36002;DHT22;22070;50.922;5.430;2023-03-31T00:18:49;12.20;99.90
36002;DHT22;22070;50.922;5.430;2023-03-31T00:21:18;12.30;99.90
36002;DHT22;22070;50.922;5.430;2023-03-31T00:23:57;12.30;99.90
36002;DHT22;22070;50.922;5.430;2023-03-31T00:26:24;12.30;99.90
36002;DHT22;22070;50.922;5.430;2023-03-31T00:28:51;12.30;99.90
36002;DHT22;22070;50.922;5.430;2023-03-31T00:31:16;12.30;99.90
36002;DHT22;22070;50.922;5.430;2023-03-31T00:33:42;12.40;99.90
36002;DHT22;22070;50.922;5.430;2023-03-31T00:36:08;12.40;99.90
36002;DHT22;22070;50.922;5.430;2023-03-31T00:38:34;12.30;99.90
36002;DHT22;22070;50.922;5.430;2023-03-31T00:41:00;12.40;99.90
36002;DHT22;22070;50.922;5.430;2023-03-31T00:43:35;12.40;99.90
36002;DHT22;22070;50.922;5.430;2023-03-31T00:46:26;12.50;99.90
36002;DHT22;22070;50.922;5.430;2023-03-31T00:48:56;12.40;99.90
36002;DHT22;22070;50.922;5.430;2023-03-31T00:51:27;12.40;99.90
36002;DHT22;22070;50.922;5.430;2023-03-31T00:53:56;12.40;99.90
36002;DHT22;22070;50.922;5.430;2023-03-31T00:56:30;12.30;99.90
36002;DHT22;22070;50.922;5.430;2023-03-31T00:59:01;12.50;99.90
36002;DHT22;22070;50.922;5.430;2023-03-31T01:01:28;12.50;99.90
36002;DHT22;22070;50.922;5.430;2023-03-31T01:03:55;12.50;99.90
36002;DHT22;22070;50.922;5.430;2023-03-31T01:06:22;12.50;99.90
36002;DHT22;22070;50.922;5.430;2023-03-31T01:08:50;12.50;99.90
36002;DHT22;22070;50.922;5.430;2023-03-31T01:11:19;12.50;99.90
36002;DHT22;22070;50.922;5.430;2023-03-31T01:13:45;12.60;99.90
36002;DHT22;22070;50.922;5.430;2023-03-31T01:16:16;12.50;99.90
36002;DHT22;22070;50.922;5.430;2023-03-31T01:18:42;12.50;99.90
36002;DHT22;22070;50.922;5.430;2023-03-31T01:35:19;12.30;99.90
36002;DHT22;22070;50.922;5.430;2023-03-31T01:43:43;12.10;99.90
36002;DHT22;22070;50.922;5.430;2023-03-31T01:49:14;12.10;99.90
36002;DHT22;22070;50.922;5.430;2023-03-31T01:52:07;12.10;99.90
36002;DHT22;22070;50.922;5.430;2023-03-31T01:55:04;12.10;99.90
36002;DHT22;22070;50.922;5.430;2023-03-31T01:57:32;12.10;99.90
36002;DHT22;22070;50.922;5.430;2023-03-31T02:03:05;12.10;99.90
36002;DHT22;22070;50.922;5.430;2023-03-31T02:05:39;12.10;99.90
36002;DHT22;22070;50.922;5.430;2023-03-31T02:10:54;12.10;99.90
36002;DHT22;22070;50.922;5.430;2023-03-31T02:13:22;12.10;99.90
36002;DHT22;22070;50.922;5.430;2023-03-31T02:15:53;12.10;99.90
36002;DHT22;22070;50.922;5.430;2023-03-31T02:18:26;12.10;99.90
36002;DHT22;22070;50.922;5.430;2023-03-31T02:20:56;12.10;99.90
36002;DHT22;22070;50.922;5.430;2023-03-31T02:23:25;12.00;99.90
36002;DHT22;22070;50.922;5.430;2023-03-31T02:26:01;12.00;99.90
36002;DHT22;22070;50.922;5.430;2023-03-31T02:28:28;11.90;99.90
36002;DHT22;22070;50.922;5.430;2023-03-31T02:33:32;11.90;99.90
36002;DHT22;22070;50.922;5.430;2023-03-31T02:35:59;11.90;99.90
36002;DHT22;22070;50.922;5.430;2023-03-31T02:38:25;11.90;99.90
36002;DHT22;22070;50.922;5.430;2023-03-31T02:40:51;11.90;99.90
36002;DHT22;22070;50.922;5.430;2023-03-31T02:43:17;11.80;99.90
36002;DHT22;22070;50.922;5.430;2023-03-31T02:45:44;11.80;99.90
36002;DHT22;22070;50.922;5.430;2023-03-31T02:48:24;11.80;99.90
36002;DHT22;22070;50.922;5.430;2023-03-31T03:13:02;11.70;99.90
36002;DHT22;22070;50.922;5.430;2023-03-31T03:15:48;11.70;99.90
36002;DHT22;22070;50.922;5.430;2023-03-31T03:18:15;11.80;99.90
36002;DHT22;22070;50.922;5.430;2023-03-31T03:20:42;11.80;99.90
36002;DHT22;22070;50.922;5.430;2023-03-31T03:23:07;11.80;99.90
36002;DHT22;22070;50.922;5.430;2023-03-31T03:25:33;11.60;99.90
36002;DHT22;22070;50.922;5.430;2023-03-31T03:27:59;11.50;99.90
36002;DHT22;22070;50.922;5.430;2023-03-31T03:30:25;11.50;99.90
36002;DHT22;22070;50.922;5.430;2023-03-31T03:32:51;11.50;99.90
36002;DHT22;22070;50.922;5.430;2023-03-31T03:35:16;11.50;99.90
36002;DHT22;22070;50.922;5.430;2023-03-31T03:37:42;11.50;99.90
36002;DHT22;22070;50.922;5.430;2023-03-31T03:40:08;11.60;99.90
36002;DHT22;22070;50.922;5.430;2023-03-31T03:42:38;11.50;99.90
36002;DHT22;22070;50.922;5.430;2023-03-31T03:45:04;11.50;99.90
36002;DHT22;22070;50.922;5.430;2023-03-31T03:47:30;11.60;99.90
36002;DHT22;22070;50.922;5.430;2023-03-31T03:49:55;11.60;99.90
36002;DHT22;22070;50.922;5.430;2023-03-31T03:52:21;11.60;99.90
36002;DHT22;22070;50.922;5.430;2023-03-31T03:54:47;11.60;99.90
36002;DHT22;22070;50.922;5.430;2023-03-31T03:57:13;11.60;99.90
36002;DHT22;22070;50.922;5.430;2023-03-31T03:59:39;11.60;99.90
36002;DHT22;22070;50.922;5.430;2023-03-31T04:02:04;11.70;99.90
36002;DHT22;22070;50.922;5.430;2023-03-31T04:04:30;11.60;99.90
36002;DHT22;22070;50.922;5.430;2023-03-31T04:06:56;11.70;99.90
36002;DHT22;22070;50.922;5.430;2023-03-31T04:09:21;11.60;99.90
36002;DHT22;22070;50.922;5.430;2023-03-31T04:11:47;11.70;99.90
36002;DHT22;22070;50.922;5.430;2023-03-31T04:14:12;11.70;99.90
36002;DHT22;22070;50.922;5.430;2023-03-31T04:16:38;11.70;99.90
36002;DHT22;22070;50.922;5.430;2023-03-31T04:19:05;11.60;99.90
36002;DHT22;22070;50.922;5.430;2023-03-31T04:21:31;11.60;99.90
36002;DHT22;22070;50.922;5.430;2023-03-31T04:23:59;11.60;99.90
36002;DHT22;22070;50.922;5.430;2023-03-31T04:26:33;11.70;99.90
36002;DHT22;22070;50.922;5.430;2023-03-31T04:29:12;11.60;99.90
36002;DHT22;22070;50.922;5.430;2023-03-31T04:31:39;11.60;99.90
36002;DHT22;22070;50.922;5.430;2023-03-31T04:34:08;11.60;99.90
36002;DHT22;22070;50.922;5.430;2023-03-31T04:36:38;11.40;99.90
36002;DHT22;22070;50.922;5.430;2023-03-31T04:39:08;11.40;99.90
36002;DHT22;22070;50.922;5.430;2023-03-31T04:41:35;11.50;99.90
36002;DHT22;22070;50.922;5.430;2023-03-31T04:44:01;11.50;99.90
36002;DHT22;22070;50.922;5.430;2023-03-31T04:46:26;11.50;99.90
36002;DHT22;22070;50.922;5.430;2023-03-31T04:48:52;11.50;99.90
36002;DHT22;22070;50.922;5.430;2023-03-31T04:51:18;11.40;99.90
36002;DHT22;22070;50.922;5.430;2023-03-31T04:53:45;11.40;99.90
36002;DHT22;22070;50.922;5.430;2023-03-31T04:56:11;11.60;99.90
36002;DHT22;22070;50.922;5.430;2023-03-31T04:58:37;11.60;99.90
36002;DHT22;22070;50.922;5.430;2023-03-31T05:01:04;11.60;99.90
36002;DHT22;22070;50.922;5.430;2023-03-31T05:03:33;11.60;99.90
36002;DHT22;22070;50.922;5.430;2023-03-31T05:05:59;11.60;99.90
36002;DHT22;22070;50.922;5.430;2023-03-31T05:08:25;11.60;99.90
36002;DHT22;22070;50.922;5.430;2023-03-31T05:10:52;11.70;99.90
36002;DHT22;22070;50.922;5.430;2023-03-31T05:13:18;11.60;99.90
36002;DHT22;22070;50.922;5.430;2023-03-31T05:15:43;11.60;99.90
36002;DHT22;22070;50.922;5.430;2023-03-31T05:18:15;11.70;99.90
36002;DHT22;22070;50.922;5.430;2023-03-31T05:20:41;11.70;99.90
36002;DHT22;22070;50.922;5.430;2023-03-31T05:23:06;11.60;99.90
36002;DHT22;22070;50.922;5.430;2023-03-31T05:25:32;11.60;99.90
36002;DHT22;22070;50.922;5.430;2023-03-31T05:27:59;11.50;99.90
36002;DHT22;22070;50.922;5.430;2023-03-31T05:30:25;11.40;99.90
36002;DHT22;22070;50.922;5.430;2023-03-31T05:32:52;11.40;99.90
36002;DHT22;22070;50.922;5.430;2023-03-31T05:35:17;11.30;99.90
36002;DHT22;22070;50.922;5.430;2023-03-31T05:37:43;11.40;99.90
36002;DHT22;22070;50.922;5.430;2023-03-31T05:40:09;11.50;99.90
36002;DHT22;22070;50.922;5.430;2023-03-31T05:42:36;11.40;99.90
36002;DHT22;22070;50.922;5.430;2023-03-31T05:45:03;11.50;99.90
36002;DHT22;22070;50.922;5.430;2023-03-31T05:47:29;11.40;99.90
36002;DHT22;22070;50.922;5.430;2023-03-31T05:49:54;11.40;99.90
36002;DHT22;22070;50.922;5.430;2023-03-31T05:52:20;11.30;99.90
36002;DHT22;22070;50.922;5.430;2023-03-31T05:54:46;11.40;99.90
36002;DHT22;22070;50.922;5.430;2023-03-31T05:57:12;11.40;99.90
36002;DHT22;22070;50.922;5.430;2023-03-31T05:59:37;11.40;99.90
36002;DHT22;22070;50.922;5.430;2023-03-31T06:02:05;11.50;99.90
36002;DHT22;22070;50.922;5.430;2023-03-31T06:04:30;11.50;99.90
36002;DHT22;22070;50.922;5.430;2023-03-31T06:06:57;11.50;99.90
36002;DHT22;22070;50.922;5.430;2023-03-31T06:09:23;11.40;99.90
36002;DHT22;22070;50.922;5.430;2023-03-31T06:11:49;11.40;99.90
36002;DHT22;22070;50.922;5.430;2023-03-31T06:14:15;11.40;99.90
36002;DHT22;22070;50.922;5.430;2023-03-31T06:16:41;11.40;99.90
36002;DHT22;22070;50.922;5.430;2023-03-31T06:19:06;11.40;99.90
36002;DHT22;22070;50.922;5.430;2023-03-31T06:21:32;11.40;99.90
36002;DHT22;22070;50.922;5.430;2023-03-31T06:23:58;11.50;99.90
36002;DHT22;22070;50.922;5.430;2023-03-31T06:26:25;11.50;99.90
36002;DHT22;22070;50.922;5.430;2023-03-31T06:28:51;11.40;99.90
36002;DHT22;22070;50.922;5.430;2023-03-31T06:31:20;11.50;99.90
36002;DHT22;22070;50.922;5.430;2023-03-31T06:33:46;11.50;99.90
36002;DHT22;22070;50.922;5.430;2023-03-31T06:36:15;11.60;99.90
36002;DHT22;22070;50.922;5.430;2023-03-31T06:38:41;11.70;99.90
36002;DHT22;22070;50.922;5.430;2023-03-31T06:41:08;11.60;99.90
36002;DHT22;22070;50.922;5.430;2023-03-31T06:43:36;11.70;99.90
36002;DHT22;22070;50.922;5.430;2023-03-31T06:46:01;11.70;99.90
36002;DHT22;22070;50.922;5.430;2023-03-31T06:48:27;11.80;99.90
36002;DHT22;22070;50.922;5.430;2023-03-31T06:50:53;11.80;99.90
36002;DHT22;22070;50.922;5.430;2023-03-31T06:53:20;11.80;99.90
36002;DHT22;22070;50.922;5.430;2023-03-31T06:55:46;11.70;99.90
36002;DHT22;22070;50.922;5.430;2023-03-31T06:58:12;11.80;99.90
36002;DHT22;22070;50.922;5.430;2023-03-31T07:00:38;12.00;99.90
36002;DHT22;22070;50.922;5.430;2023-03-31T07:03:05;12.00;99.90
36002;DHT22;22070;50.922;5.430;2023-03-31T07:05:33;12.10;99.90
36002;DHT22;22070;50.922;5.430;2023-03-31T07:08:00;12.20;99.90
36002;DHT22;22070;50.922;5.430;2023-03-31T07:10:27;12.10;99.90
36002;DHT22;22070;50.922;5.430;2023-03-31T07:12:53;12.10;99.90
36002;DHT22;22070;50.922;5.430;2023-03-31T07:15:19;12.20;99.90
36002;DHT22;22070;50.922;5.430;2023-03-31T07:17:45;12.20;99.90
36002;DHT22;22070;50.922;5.430;2023-03-31T07:20:13;12.20;99.90
36002;DHT22;22070;50.922;5.430;2023-03-31T07:22:42;12.30;99.90
36002;DHT22;22070;50.922;5.430;2023-03-31T07:25:09;12.30;99.90
36002;DHT22;22070;50.922;5.430;2023-03-31T07:27:35;12.40;99.90
36002;DHT22;22070;50.922;5.430;2023-03-31T07:30:03;12.40;99.90
36002;DHT22;22070;50.922;5.430;2023-03-31T07:32:28;12.50;99.90
36002;DHT22;22070;50.922;5.430;2023-03-31T07:34:54;12.50;99.90
36002;DHT22;22070;50.922;5.430;2023-03-31T07:37:20;12.60;99.90
36002;DHT22;22070;50.922;5.430;2023-03-31T07:39:45;12.70;99.90
36002;DHT22;22070;50.922;5.430;2023-03-31T07:42:11;12.70;99.90
36002;DHT22;22070;50.922;5.430;2023-03-31T07:44:37;12.70;99.90
36002;DHT22;22070;50.922;5.430;2023-03-31T07:47:03;12.70;99.90
36002;DHT22;22070;50.922;5.430;2023-03-31T07:49:31;12.70;99.90
36002;DHT22;22070;50.922;5.430;2023-03-31T07:51:57;12.80;99.90
36002;DHT22;22070;50.922;5.430;2023-03-31T07:54:23;12.80;99.90
36002;DHT22;22070;50.922;5.430;2023-03-31T07:56:48;12.90;99.90
36002;DHT22;22070;50.922;5.430;2023-03-31T07:59:14;12.90;99.90
36002;DHT22;22070;50.922;5.430;2023-03-31T08:01:40;13.00;99.90
36002;DHT22;22070;50.922;5.430;2023-03-31T08:04:05;13.10;99.90
36002;DHT22;22070;50.922;5.430;2023-03-31T08:06:31;13.10;99.90
36002;DHT22;22070;50.922;5.430;2023-03-31T08:08:57;13.10;99.90
36002;DHT22;22070;50.922;5.430;2023-03-31T08:11:24;13.10;99.90
36002;DHT22;22070;50.922;5.430;2023-03-31T08:13:50;13.10;99.90
36002;DHT22;22070;50.922;5.430;2023-03-31T08:16:16;13.20;99.90
36002;DHT22;22070;50.922;5.430;2023-03-31T08:18:42;13.20;99.90
36002;DHT22;22070;50.922;5.430;2023-03-31T08:21:08;13.20;99.90
36002;DHT22;22070;50.922;5.430;2023-03-31T08:23:36;13.30;99.90
36002;DHT22;22070;50.922;5.430;2023-03-31T08:26:13;13.30;99.90
36002;DHT22;22070;50.922;5.430;2023-03-31T08:28:39;13.30;99.90
36002;DHT22;22070;50.922;5.430;2023-03-31T08:31:06;13.30;99.90
36002;DHT22;22070;50.922;5.430;2023-03-31T08:33:33;13.30;99.90
36002;DHT22;22070;50.922;5.430;2023-03-31T08:36:06;13.20;99.90
36002;DHT22;22070;50.922;5.430;2023-03-31T08:38:35;13.20;99.90
36002;DHT22;22070;50.922;5.430;2023-03-31T08:41:03;13.30;99.90
36002;DHT22;22070;50.922;5.430;2023-03-31T08:43:33;13.30;99.90
36002;DHT22;22070;50.922;5.430;2023-03-31T08:46:01;13.30;99.90
36002;DHT22;22070;50.922;5.430;2023-03-31T08:48:38;13.30;99.90
36002;DHT22;22070;50.922;5.430;2023-03-31T08:51:19;13.30;99.90
36002;DHT22;22070;50.922;5.430;2023-03-31T08:56:41;13.40;99.90
36002;DHT22;22070;50.922;5.430;2023-03-31T08:59:30;13.50;99.90
36002;DHT22;22070;50.922;5.430;2023-03-31T09:02:03;13.50;99.90
36002;DHT22;22070;50.922;5.430;2023-03-31T09:12:37;13.70;99.90
36002;DHT22;22070;50.922;5.430;2023-03-31T09:15:10;13.70;99.90
36002;DHT22;22070;50.922;5.430;2023-03-31T09:17:43;13.70;99.90
36002;DHT22;22070;50.922;5.430;2023-03-31T09:20:18;13.70;99.90
36002;DHT22;22070;50.922;5.430;2023-03-31T09:23:00;13.60;99.90
36002;DHT22;22070;50.922;5.430;2023-03-31T09:25:35;13.40;99.90
36002;DHT22;22070;50.922;5.430;2023-03-31T09:28:04;13.30;99.90
36002;DHT22;22070;50.922;5.430;2023-03-31T09:30:33;13.30;99.90
36002;DHT22;22070;50.922;5.430;2023-03-31T09:33:16;13.20;99.90
36002;DHT22;22070;50.922;5.430;2023-03-31T09:35:42;13.10;99.90
36002;DHT22;22070;50.922;5.430;2023-03-31T09:38:13;13.00;99.90
36002;DHT22;22070;50.922;5.430;2023-03-31T09:40:40;12.90;99.90
36002;DHT22;22070;50.922;5.430;2023-03-31T09:43:14;12.90;99.90
36002;DHT22;22070;50.922;5.430;2023-03-31T09:45:43;12.90;99.90
36002;DHT22;22070;50.922;5.430;2023-03-31T09:48:13;12.80;99.90
36002;DHT22;22070;50.922;5.430;2023-03-31T09:50:53;12.70;99.90
36002;DHT22;22070;50.922;5.430;2023-03-31T09:53:46;12.80;99.90
36002;DHT22;22070;50.922;5.430;2023-03-31T09:59:14;12.80;99.90
36002;DHT22;22070;50.922;5.430;2023-03-31T10:01:41;12.90;99.90
36002;DHT22;22070;50.922;5.430;2023-03-31T10:04:17;12.90;99.90
36002;DHT22;22070;50.922;5.430;2023-03-31T10:06:44;12.90;99.90
36002;DHT22;22070;50.922;5.430;2023-03-31T10:09:10;12.90;99.90
36002;DHT22;22070;50.922;5.430;2023-03-31T10:11:37;12.90;99.90
36002;DHT22;22070;50.922;5.430;2023-03-31T10:14:10;12.90;99.90
36002;DHT22;22070;50.922;5.430;2023-03-31T10:16:48;12.90;99.90
36002;DHT22;22070;50.922;5.430;2023-03-31T10:19:23;13.00;99.90
36002;DHT22;22070;50.922;5.430;2023-03-31T10:22:26;13.10;99.90
36002;DHT22;22070;50.922;5.430;2023-03-31T10:24:53;13.20;99.90
36002;DHT22;22070;50.922;5.430;2023-03-31T10:27:29;13.20;99.90
36002;DHT22;22070;50.922;5.430;2023-03-31T10:29:55;13.30;99.90
36002;DHT22;22070;50.922;5.430;2023-03-31T10:32:25;13.30;99.90
36002;DHT22;22070;50.922;5.430;2023-03-31T10:34:54;13.30;99.90
36002;DHT22;22070;50.922;5.430;2023-03-31T10:37:23;13.50;99.90
36002;DHT22;22070;50.922;5.430;2023-03-31T10:39:58;13.70;99.90
36002;DHT22;22070;50.922;5.430;2023-03-31T10:42:25;13.70;99.90
36002;DHT22;22070;50.922;5.430;2023-03-31T10:45:10;13.80;99.90
36002;DHT22;22070;50.922;5.430;2023-03-31T10:47:38;14.00;99.90
36002;DHT22;22070;50.922;5.430;2023-03-31T10:50:13;14.00;99.90
36002;DHT22;22070;50.922;5.430;2023-03-31T10:52:44;13.90;99.90
36002;DHT22;22070;50.922;5.430;2023-03-31T10:55:22;13.60;99.90
36002;DHT22;22070;50.922;5.430;2023-03-31T10:57:54;13.50;99.90
36002;DHT22;22070;50.922;5.430;2023-03-31T11:14:42;13.20;99.90
36002;DHT22;22070;50.922;5.430;2023-03-31T11:25:42;13.70;99.90
36002;DHT22;22070;50.922;5.430;2023-03-31T11:28:49;13.80;99.90
36002;DHT22;22070;50.922;5.430;2023-03-31T11:37:23;14.20;99.90
36002;DHT22;22070;50.922;5.430;2023-03-31T11:42:58;14.20;99.90
36002;DHT22;22070;50.922;5.430;2023-03-31T11:45:30;14.30;99.90
36002;DHT22;22070;50.922;5.430;2023-03-31T11:48:02;14.30;99.90
36002;DHT22;22070;50.922;5.430;2023-03-31T11:50:32;14.40;99.90
36002;DHT22;22070;50.922;5.430;2023-03-31T11:53:10;14.40;99.90
36002;DHT22;22070;50.922;5.430;2023-03-31T11:55:40;14.50;99.90
36002;DHT22;22070;50.922;5.430;2023-03-31T12:01:26;14.60;99.90
36002;DHT22;22070;50.922;5.430;2023-03-31T12:03:55;14.60;99.90
36002;DHT22;22070;50.922;5.430;2023-03-31T12:06:26;14.60;99.90
36002;DHT22;22070;50.922;5.430;2023-03-31T12:11:45;14.70;99.90
36002;DHT22;22070;50.922;5.430;2023-03-31T12:16:48;14.70;99.90
36002;DHT22;22070;50.922;5.430;2023-03-31T12:22:30;14.50;99.90
36002;DHT22;22070;50.922;5.430;2023-03-31T12:24:57;14.40;99.90
36002;DHT22;22070;50.922;5.430;2023-03-31T12:27:38;14.60;99.90
36002;DHT22;22070;50.922;5.430;2023-03-31T12:32:40;14.50;99.90
36002;DHT22;22070;50.922;5.430;2023-03-31T12:38:05;14.50;99.90
36002;DHT22;22070;50.922;5.430;2023-03-31T12:47:01;14.30;99.90
36002;DHT22;22070;50.922;5.430;2023-03-31T12:50:12;14.30;99.90
36002;DHT22;22070;50.922;5.430;2023-03-31T12:53:03;14.40;99.90
36002;DHT22;22070;50.922;5.430;2023-03-31T12:55:56;14.50;99.90
36002;DHT22;22070;50.922;5.430;2023-03-31T13:06:50;14.80;99.90
36002;DHT22;22070;50.922;5.430;2023-03-31T13:11:45;14.60;99.90
36002;DHT22;22070;50.922;5.430;2023-03-31T13:14:22;14.50;99.90
36002;DHT22;22070;50.922;5.430;2023-03-31T13:16:49;14.20;99.90
36002;DHT22;22070;50.922;5.430;2023-03-31T13:19:34;13.90;99.90
36002;DHT22;22070;50.922;5.430;2023-03-31T13:22:03;13.80;99.90
36002;DHT22;22070;50.922;5.430;2023-03-31T13:24:30;13.60;99.90
36002;DHT22;22070;50.922;5.430;2023-03-31T13:26:58;13.40;99.90
36002;DHT22;22070;50.922;5.430;2023-03-31T13:29:43;13.20;99.90
36002;DHT22;22070;50.922;5.430;2023-03-31T13:32:25;13.00;99.90
36002;DHT22;22070;50.922;5.430;2023-03-31T13:35:02;12.90;99.90
36002;DHT22;22070;50.922;5.430;2023-03-31T13:51:17;12.40;99.90
36002;DHT22;22070;50.922;5.430;2023-03-31T14:04:54;12.40;99.90
36002;DHT22;22070;50.922;5.430;2023-03-31T14:10:40;12.50;99.90
36002;DHT22;22070;50.922;5.430;2023-03-31T14:13:18;12.50;99.90
36002;DHT22;22070;50.922;5.430;2023-03-31T14:15:52;12.40;99.90
36002;DHT22;22070;50.922;5.430;2023-03-31T14:18:26;12.40;99.90
36002;DHT22;22070;50.922;5.430;2023-03-31T14:23:58;12.60;99.90
36002;DHT22;22070;50.922;5.430;2023-03-31T14:26:52;12.70;99.90
36002;DHT22;22070;50.922;5.430;2023-03-31T14:32:39;12.80;99.90
36002;DHT22;22070;50.922;5.430;2023-03-31T14:37:39;12.70;99.90
36002;DHT22;22070;50.922;5.430;2023-03-31T14:40:05;12.80;99.90
36002;DHT22;22070;50.922;5.430;2023-03-31T14:42:38;12.80;99.90
36002;DHT22;22070;50.922;5.430;2023-03-31T14:45:14;12.90;99.90
36002;DHT22;22070;50.922;5.430;2023-03-31T14:47:40;12.90;99.90
36002;DHT22;22070;50.922;5.430;2023-03-31T14:50:17;12.90;99.90
36002;DHT22;22070;50.922;5.430;2023-03-31T14:52:47;12.90;99.90
36002;DHT22;22070;50.922;5.430;2023-03-31T14:55:15;12.90;99.90
36002;DHT22;22070;50.922;5.430;2023-03-31T14:57:42;12.90;99.90
36002;DHT22;22070;50.922;5.430;2023-03-31T15:00:13;12.80;99.90
36002;DHT22;22070;50.922;5.430;2023-03-31T15:02:43;12.80;99.90
36002;DHT22;22070;50.922;5.430;2023-03-31T15:05:30;12.80;99.90
36002;DHT22;22070;50.922;5.430;2023-03-31T15:08:10;12.80;99.90
36002;DHT22;22070;50.922;5.430;2023-03-31T15:10:39;12.70;99.90
36002;DHT22;22070;50.922;5.430;2023-03-31T15:13:09;12.70;99.90
36002;DHT22;22070;50.922;5.430;2023-03-31T15:15:36;12.70;99.90
36002;DHT22;22070;50.922;5.430;2023-03-31T15:18:02;12.70;99.90
36002;DHT22;22070;50.922;5.430;2023-03-31T15:20:30;12.70;99.90
36002;DHT22;22070;50.922;5.430;2023-03-31T15:22:57;12.70;99.90
36002;DHT22;22070;50.922;5.430;2023-03-31T15:25:42;12.70;99.90
36002;DHT22;22070;50.922;5.430;2023-03-31T15:28:14;12.70;99.90
36002;DHT22;22070;50.922;5.430;2023-03-31T15:30:42;12.70;99.90
36002;DHT22;22070;50.922;5.430;2023-03-31T15:33:19;12.80;99.90
36002;DHT22;22070;50.922;5.430;2023-03-31T15:35:46;12.80;99.90
36002;DHT22;22070;50.922;5.430;2023-03-31T15:38:14;12.90;99.90
36002;DHT22;22070;50.922;5.430;2023-03-31T15:40:43;12.80;99.90
36002;DHT22;22070;50.922;5.430;2023-03-31T15:43:30;12.60;99.90
36002;DHT22;22070;50.922;5.430;2023-03-31T15:45:58;12.60;99.90
36002;DHT22;22070;50.922;5.430;2023-03-31T15:48:47;12.60;99.90
36002;DHT22;22070;50.922;5.430;2023-03-31T15:51:17;12.50;99.90
36002;DHT22;22070;50.922;5.430;2023-03-31T15:53:54;12.40;99.90
36002;DHT22;22070;50.922;5.430;2023-03-31T15:56:44;12.40;99.90
36002;DHT22;22070;50.922;5.430;2023-03-31T15:59:24;12.40;99.90
36002;DHT22;22070;50.922;5.430;2023-03-31T16:01:51;12.30;99.90
36002;DHT22;22070;50.922;5.430;2023-03-31T16:04:18;12.30;99.90
36002;DHT22;22070;50.922;5.430;2023-03-31T16:06:54;12.30;99.90
36002;DHT22;22070;50.922;5.430;2023-03-31T16:09:24;12.30;99.90
36002;DHT22;22070;50.922;5.430;2023-03-31T16:11:57;12.20;99.90
36002;DHT22;22070;50.922;5.430;2023-03-31T16:14:33;12.20;99.90
36002;DHT22;22070;50.922;5.430;2023-03-31T16:17:10;12.20;99.90
36002;DHT22;22070;50.922;5.430;2023-03-31T16:19:47;12.10;99.90
36002;DHT22;22070;50.922;5.430;2023-03-31T16:22:18;12.00;99.90
36002;DHT22;22070;50.922;5.430;2023-03-31T16:24:44;12.00;99.90
36002;DHT22;22070;50.922;5.430;2023-03-31T16:27:10;11.90;99.90
36002;DHT22;22070;50.922;5.430;2023-03-31T16:29:36;12.00;99.90
36002;DHT22;22070;50.922;5.430;2023-03-31T16:32:16;12.00;99.90
36002;DHT22;22070;50.922;5.430;2023-03-31T16:34:58;11.90;99.90
36002;DHT22;22070;50.922;5.430;2023-03-31T16:37:24;11.90;99.90
36002;DHT22;22070;50.922;5.430;2023-03-31T16:39:50;11.90;99.90
36002;DHT22;22070;50.922;5.430;2023-03-31T16:42:17;12.00;99.90
36002;DHT22;22070;50.922;5.430;2023-03-31T16:44:42;12.00;99.90
36002;DHT22;22070;50.922;5.430;2023-03-31T16:47:10;11.90;99.90
36002;DHT22;22070;50.922;5.430;2023-03-31T16:49:36;11.90;99.90
36002;DHT22;22070;50.922;5.430;2023-03-31T16:52:02;12.00;99.90
36002;DHT22;22070;50.922;5.430;2023-03-31T16:54:29;11.90;99.90
36002;DHT22;22070;50.922;5.430;2023-03-31T16:56:56;11.90;99.90
36002;DHT22;22070;50.922;5.430;2023-03-31T16:59:22;11.90;99.90
36002;DHT22;22070;50.922;5.430;2023-03-31T17:01:48;11.90;99.90
36002;DHT22;22070;50.922;5.430;2023-03-31T17:04:13;12.00;99.90
36002;DHT22;22070;50.922;5.430;2023-03-31T17:06:39;12.00;99.90
36002;DHT22;22070;50.922;5.430;2023-03-31T17:09:04;12.00;99.90
36002;DHT22;22070;50.922;5.430;2023-03-31T17:11:31;12.00;99.90
36002;DHT22;22070;50.922;5.430;2023-03-31T17:13:56;12.00;99.90
36002;DHT22;22070;50.922;5.430;2023-03-31T17:16:24;12.10;99.90
36002;DHT22;22070;50.922;5.430;2023-03-31T17:18:50;12.10;99.90
36002;DHT22;22070;50.922;5.430;2023-03-31T17:21:17;12.10;99.90
36002;DHT22;22070;50.922;5.430;2023-03-31T17:23:43;12.10;99.90
36002;DHT22;22070;50.922;5.430;2023-03-31T17:26:10;12.10;99.90
36002;DHT22;22070;50.922;5.430;2023-03-31T17:28:37;12.10;99.90
36002;DHT22;22070;50.922;5.430;2023-03-31T17:31:16;12.00;99.90
36002;DHT22;22070;50.922;5.430;2023-03-31T17:33:43;11.90;99.90
36002;DHT22;22070;50.922;5.430;2023-03-31T17:36:09;12.00;99.90
36002;DHT22;22070;50.922;5.430;2023-03-31T17:38:36;12.00;99.90
36002;DHT22;22070;50.922;5.430;2023-03-31T17:41:07;11.90;99.90
36002;DHT22;22070;50.922;5.430;2023-03-31T17:43:33;11.80;99.90
36002;DHT22;22070;50.922;5.430;2023-03-31T17:46:09;11.80;99.90
36002;DHT22;22070;50.922;5.430;2023-03-31T17:48:36;11.80;99.90
36002;DHT22;22070;50.922;5.430;2023-03-31T17:51:09;11.70;99.90
36002;DHT22;22070;50.922;5.430;2023-03-31T17:53:38;11.70;99.90
36002;DHT22;22070;50.922;5.430;2023-03-31T17:56:04;11.70;99.90
36002;DHT22;22070;50.922;5.430;2023-03-31T17:58:30;11.70;99.90
36002;DHT22;22070;50.922;5.430;2023-03-31T18:00:57;11.60;99.90
36002;DHT22;22070;50.922;5.430;2023-03-31T18:03:23;11.50;99.90
36002;DHT22;22070;50.922;5.430;2023-03-31T18:05:49;11.60;99.90
36002;DHT22;22070;50.922;5.430;2023-03-31T18:08:15;11.60;99.90
36002;DHT22;22070;50.922;5.430;2023-03-31T18:10:41;11.50;99.90
36002;DHT22;22070;50.922;5.430;2023-03-31T18:13:07;11.50;99.90
36002;DHT22;22070;50.922;5.430;2023-03-31T18:15:34;11.50;99.90
36002;DHT22;22070;50.922;5.430;2023-03-31T18:17:59;11.40;99.90
36002;DHT22;22070;50.922;5.430;2023-03-31T18:20:26;11.30;99.90
36002;DHT22;22070;50.922;5.430;2023-03-31T18:22:52;11.40;99.90
36002;DHT22;22070;50.922;5.430;2023-03-31T18:25:17;11.30;99.90
36002;DHT22;22070;50.922;5.430;2023-03-31T18:27:43;11.30;99.90
36002;DHT22;22070;50.922;5.430;2023-03-31T18:30:09;11.30;99.90
36002;DHT22;22070;50.922;5.430;2023-03-31T18:32:35;11.30;99.90
36002;DHT22;22070;50.922;5.430;2023-03-31T18:35:01;11.30;99.90
36002;DHT22;22070;50.922;5.430;2023-03-31T18:37:27;11.30;99.90